Аэропорт: Сургут. Сургут

ICAO: USRR

METAR:
2019/03/26 13:00
USRR 261300Z 17007MPS 140V200 9999 BKN046 05/M04 Q1010 R07/CLRD60 NOSIG RMK QFE753
METAR:
2019/03/26 12:24
TAF TAF USRR 261055Z 2612/2712 16008G15MPS 9999 BKN015 
      TEMPO 2612/2615 3100 -SHSNRA BKN011 BKN020CB 
     FM261500 17007G13MPS 2000 SHSNRA BKN006 BKN010CB 
      TEMPO 2615/2712 1000 SHRASN BKN004 BKN008CB 
      BECMG 2621/2623 23006G12MPS